Flight Track Log - Related Links

Times and Time Zones

All times are in EDT time to prevent confusion due to time zone crossing. See the N88WF flight status page for this flight to view local times or setup timezone preferences in your user account.

Time Position Orientation Groundspeed Altitude Reporting Facility
EDT Latitude Longitude Course Direction KTS MPH feet Rate Location/Type
Mon 02:56:32 PM 41.0500 -73.7000 270° West 131 151 1,200  Level New York TRACON
Mon 02:57:26 PM 41.0500 -73.7500 270° West 134 154 2,000 895 Climbing New York TRACON
Mon 02:58:26 PM 41.0667 -73.8000 294° West 134 154 2,900 850 Climbing New York TRACON
Mon 02:59:26 PM 41.0667 -73.8333 270° West 142 163 3,700 714 Climbing New York TRACON
Mon 03:00:32 PM 41.0333 -73.8667 217° Southwest 133 153 4,400 667 Climbing New York TRACON
Mon 03:01:32 PM 41.0000 -73.9000 217° Southwest 136 157 5,100 600 Climbing New York TRACON
Mon 03:02:32 PM 40.9667 -73.9000 180° South 142 163 5,600 450 Climbing New York TRACON
Mon 03:03:32 PM 40.9333 -73.9000 180° South 146 168 6,000 200 Climbing New York TRACON
Mon 03:04:32 PM 40.8833 -73.8833 166° South 164 189 6,000  Level New York TRACON
Mon 03:05:32 PM 40.8500 -73.8667 159° South 167 192 6,000  Level New York TRACON
Mon 03:06:38 PM 40.8000 -73.8500 202° Southwest 170 196 6,000  Level New York TRACON
Mon 03:07:38 PM 40.7500 -73.8333 166° South 170 196 6,000  Level New York TRACON
Mon 03:08:32 PM 40.7167 -73.8000 143° Southeast 167 192 6,000  Level New York TRACON
Mon 03:09:32 PM 40.6667 -73.7833 166° South 160 184 6,000  Level New York TRACON
Mon 03:10:32 PM 40.6167 -73.7833 180° South 153 176 6,000  Level New York TRACON
Mon 03:11:32 PM 40.5833 -73.8167 217° Southwest 160 184 6,000  Level New York TRACON
Mon 03:12:32 PM 40.5333 -73.8333 194° South 165 190 6,000  Level New York TRACON
Mon 03:13:32 PM 40.5000 -73.8667 217° Southwest 165 190 6,000  Level New York TRACON
Mon 03:14:32 PM 40.4667 -73.9000 217° Southwest 166 191 6,000  Level New York TRACON
Mon 03:15:32 PM 40.4167 -73.9333 207° Southwest 167 192 6,000 -132 Level New York TRACON
Mon 03:27:36 PM 39.9288 -74.3254 215° Southwest 3,900 -141 Descending FlightAware ADS-B (KPHL)
Mon 03:30:28 PM 39.8233 -74.4257 216° Southwest 165 190 3,900 131 Level FlightAware ADS-B (KPHL)
Mon 03:35:59 PM 39.6873 -74.6809 236° Southwest 131 151 5,000 300 Climbing FlightAware ADS-B (KPHL)
Mon 03:36:00 PM 39.6744 -74.6927 232° Southwest  Level FlightAware Approximate
Mon 03:36:48 PM 39.6703 -74.7130 236° Southwest 120 138 5,800  Level FlightAware ADS-B (KPHL)
Mon 03:37:08 PM 39.6683 -74.7166 237° Southwest 140 161 5,900 102 Climbing FlightAware ADS-B (KPHL)
Mon 03:37:47 PM 39.6537 -74.7455 237° Southwest 157 181 5,900  Level FlightAware ADS-B (KPHL)
Mon 03:39:15 PM 39.6114 -74.8266 236° Southwest 165 190 5,900  Level FlightAware ADS-B (KPHL)
Mon 03:39:51 PM 39.5961 -74.8558 236° Southwest 168 193 5,900  Level FlightAware ADS-B (KPHL)
Mon 03:40:30 PM 39.5791 -74.8882 236° Southwest 169 194 5,900  Level FlightAware ADS-B (KPHL)
Mon 03:40:52 PM 39.5714 -74.9028 236° Southwest 169 194 5,900  Level FlightAware ADS-B (KPHL)
Mon 03:41:17 PM 39.5582 -74.9279 236° Southwest 169 194 5,900  Level FlightAware ADS-B (KPHL)
Mon 03:41:56 PM 39.5433 -74.9562 236° Southwest 171 197 5,900  Level FlightAware ADS-B (KPHL)
Mon 03:42:16 PM 39.5318 -74.9780 235° Southwest 172 198 5,900  Level FlightAware ADS-B (KPHL)
Mon 03:43:05 PM 39.5097 -75.0177 234° Southwest 166 191 5,900  Level FlightAware ADS-B (KPHL)
Mon 03:43:35 PM 39.4959 -75.0424 234° Southwest 166 191 5,900  Level FlightAware ADS-B (KPHL)
Mon 03:44:02 PM 39.4931 -75.0474 235° Southwest 168 193 5,900  Level FlightAware ADS-B (KPHL)
Mon 03:44:34 PM 39.5252 -74.9900 234° Southwest 168 193 5,900  Level FlightAware ADS-B (KPHL)
Mon 03:45:41 PM 39.4688 -75.0912 234° Southwest 168 193 5,900  Level FlightAware ADS-B (KPHL)
Mon 03:48:30 PM 39.3718 -75.2654 234° Southwest 168 193 5,900  Level FlightAware ADS-B (KPHL)
Mon 03:49:23 PM 39.3379 -75.3264 234° Southwest 169 194 5,900  Level FlightAware ADS-B (KPHL)
Mon 03:51:05 PM 39.2910 -75.4102 234° Southwest 169 194 5,900  Level FlightAware ADS-B (KWWD)
Mon 03:51:27 PM 39.2808 -75.4283 234° Southwest 169 194 5,900  Level FlightAware ADS-B (KWWD)
Mon 03:51:47 PM 39.2716 -75.4448 234° Southwest 169 194 5,900  Level FlightAware ADS-B (KWWD)
Mon 03:52:09 PM 39.2615 -75.4627 234° Southwest 169 194 5,900  Level FlightAware ADS-B (KWWD)
Mon 03:52:27 PM 39.2535 -75.4770 234° Southwest 169 194 5,900  Level FlightAware ADS-B (KWWD)
Mon 03:52:56 PM 39.2401 -75.5005 234° Southwest 169 194 5,900  Level FlightAware ADS-B (KWWD)
Mon 03:53:27 PM 39.2239 -75.5236 216° Southwest 163 188 5,900  Level FlightAware ADS-B (KWWD)
Mon 03:53:48 PM 39.2104 -75.5358 218° Southwest 164 189 5,900  Level FlightAware ADS-B (KWWD)
Mon 03:54:07 PM 39.1978 -75.5477 218° Southwest 164 189 5,900  Level FlightAware ADS-B (KWWD)
Mon 03:54:27 PM 39.1853 -75.5597 219° Southwest 165 190 5,900  Level FlightAware ADS-B (KWWD)
Mon 03:58:48 PM 39.0187 -75.7180 218° Southwest 166 191 5,900  Level FlightAware ADS-B (KWWD)
Mon 03:59:10 PM 39.0048 -75.7312 218° Southwest 165 190 5,900  Level FlightAware ADS-B (KWWD)
Mon 04:00:25 PM 38.9564 -75.7769 218° Southwest 164 189 5,900  Level FlightAware ADS-B (KWWD)
Mon 04:00:49 PM 38.9413 -75.7912 218° Southwest 164 189 5,900  Level FlightAware ADS-B (KWWD)
Mon 04:01:05 PM 38.9313 -75.8005 218° Southwest 165 190 5,900  Level FlightAware ADS-B (KWWD)
Mon 04:01:36 PM 38.9113 -75.8195 218° Southwest 162 186 5,900  Level FlightAware ADS-B (KWWD)
Mon 04:06:59 PM 38.7047 -76.0132 218° Southwest 162 186 5,900  Level FlightAware ADS-B (KWWD)
Mon 04:07:19 PM 38.6921 -76.0251 218° Southwest 166 191 5,900  Level FlightAware ADS-B (KWWD)
Mon 04:09:56 PM 38.5902 -76.1201 218° Southwest 166 191 5,900 26 Level FlightAware ADS-B (KWWD)
Mon 04:11:08 PM 38.5472 -76.1597 218° Southwest 173 199 6,000 45 Climbing Washington Center
Mon 04:12:08 PM 38.5094 -76.2019 221° Southwest 174 200 6,000  Level Washington Center
Mon 04:13:03 PM 38.4739 -76.2333 215° Southwest 173 199 6,000  Level Washington Center
Mon 04:13:57 PM 38.4361 -76.2650 213° Southwest 174 200 6,000  Level Washington Center
Mon 04:14:55 PM 38.4025 -76.2964 216° Southwest 174 200 6,000  Level Washington Center
Mon 04:15:53 PM 38.3628 -76.3331 216° Southwest 174 200 6,000  Level Washington Center
Mon 04:17:00 PM 38.3167 -76.3750 216° Southwest 175 201 6,000  Level Washington Center
Mon 04:17:55 PM 38.2831 -76.4117 221° Southwest 178 205 6,000  Level Washington Center
Mon 04:18:55 PM 38.2494 -76.4564 226° Southwest 171 197 6,000  Level Washington Center
Mon 04:21:11 PM 38.1833 -76.5500 228° Southwest 175 201 6,000  Level Potomac TRACON
Mon 04:22:11 PM 38.1500 -76.6000 230° Southwest 177 204 6,000  Level Potomac TRACON
Mon 04:23:12 PM 38.1167 -76.6500 230° Southwest 178 205 6,000  Level Potomac TRACON
Mon 04:24:12 PM 38.0833 -76.7000 230° Southwest 174 200 6,000  Level Potomac TRACON
Mon 04:25:12 PM 38.0500 -76.7333 218° Southwest 174 200 6,000  Level Potomac TRACON
Mon 04:26:12 PM 38.0167 -76.7833 230° Southwest 172 198 6,000  Level Potomac TRACON
Mon 04:27:12 PM 37.9833 -76.8333 230° Southwest 172 198 6,000  Level Potomac TRACON
Mon 04:28:07 PM 37.9500 -76.8667 218° Southwest 176 203 6,000  Level Potomac TRACON
Mon 04:29:07 PM 37.9167 -76.9167 230° Southwest 175 201 6,000  Level Potomac TRACON
Mon 04:30:13 PM 37.8833 -76.9833 238° Southwest 179 206 6,000  Level Potomac TRACON
Mon 04:31:14 PM 37.8500 -77.0167 218° Southwest 178 205 6,000  Level Potomac TRACON
Mon 04:32:14 PM 37.8333 -77.0667 247° West 175 201 6,000  Level Potomac TRACON
Mon 04:33:09 PM 37.8000 -77.1167 230° Southwest 172 198 6,000  Level Potomac TRACON
Mon 04:34:09 PM 37.7667 -77.1667 230° Southwest 174 200 6,000  Level Potomac TRACON
Mon 04:35:09 PM 37.7333 -77.2167 230° Southwest 175 201 6,000  Level Potomac TRACON
Mon 04:36:09 PM 37.7167 -77.2500 238° Southwest 172 198 6,000 50 Level Potomac TRACON
Mon 04:37:10 PM 37.6833 -77.3000 230° Southwest 172 198 6,100  Climbing Potomac TRACON
Mon 04:38:10 PM 37.6500 -77.3500 230° Southwest 172 198 6,000  Descending Potomac TRACON
Mon 04:39:10 PM 37.6167 -77.4000 230° Southwest 170 196 6,100  Climbing Potomac TRACON
Mon 04:40:11 PM 37.5833 -77.4333 218° Southwest 172 198 6,000 -50 Descending Potomac TRACON
Mon 04:41:11 PM 37.5667 -77.4833 247° West 173 199 6,000  Level Potomac TRACON
Mon 04:42:11 PM 37.5333 -77.5333 230° Southwest 169 194 6,000  Level Potomac TRACON
Mon 04:43:11 PM 37.5000 -77.5833 230° Southwest 170 196 6,000  Level Potomac TRACON
Mon 04:44:12 PM 37.4667 -77.6333 230° Southwest 171 197 6,000  Level Potomac TRACON
Mon 04:45:12 PM 37.4333 -77.6667 218° Southwest 175 201 6,000  Level Potomac TRACON
Mon 04:46:12 PM 37.4167 -77.7167 247° West 172 198 6,000  Level Potomac TRACON
Mon 04:47:07 PM 37.3833 -77.7667 230° Southwest 174 200 6,000  Level Potomac TRACON
Mon 04:48:07 PM 37.3500 -77.8167 230° Southwest 171 197 6,000  Level Potomac TRACON
Mon 04:49:07 PM 37.3167 -77.8500 218° Southwest 174 200 6,000  Level Potomac TRACON
Mon 04:50:01 PM 37.2983 -77.8894 240° Southwest 175 201 6,000  Level Washington Center
Mon 04:51:02 PM 37.2703 -77.9381 234° Southwest 175 201 6,000  Level Washington Center
Mon 04:52:00 PM 37.2400 -77.9842 230° Southwest 175 201 6,000  Level Washington Center
Mon 04:53:01 PM 37.2100 -78.0300 231° Southwest 175 201 6,000  Level Washington Center
Mon 04:54:02 PM 37.1797 -78.0761 231° Southwest 175 201 6,000  Level Washington Center
Mon 04:55:03 PM 37.1494 -78.1247 232° Southwest 175 201 6,000  Level Washington Center
Mon 04:56:00 PM 37.1214 -78.1681 231° Southwest 175 201 6,000  Level Washington Center
Mon 04:57:01 PM 37.0911 -78.2164 232° Southwest 175 201 6,000  Level Washington Center
Mon 04:58:03 PM 37.0589 -78.2622 229° Southwest 175 201 6,000  Level Washington Center
Mon 04:59:00 PM 37.0308 -78.3056 231° Southwest 175 201 6,000  Level Washington Center
Mon 05:00:00 PM 36.9964 -78.3564 230° Southwest 175 201 6,000  Level Washington Center
Mon 05:01:01 PM 36.9658 -78.4044 231° Southwest 175 201 6,000  Level Washington Center
Mon 05:02:01 PM 36.9400 -78.4425 230° Southwest 175 201 6,000  Level Washington Center
Mon 05:03:02 PM 36.9075 -78.4933 231° Southwest 175 201 6,000  Level Washington Center
Mon 05:04:00 PM 36.8794 -78.5364 231° Southwest 175 201 6,000  Level Washington Center
Mon 05:05:00 PM 36.8492 -78.5794 229° Southwest 175 201 6,000  Level Washington Center
Mon 05:06:02 PM 36.8186 -78.6250 230° Southwest 175 201 6,000  Level Washington Center
Mon 05:07:00 PM 36.7883 -78.6703 230° Southwest 175 201 6,000  Level Washington Center
Mon 05:08:01 PM 36.7558 -78.7211 231° Southwest 175 201 6,000  Level Washington Center
Mon 05:09:02 PM 36.7253 -78.7639 228° Southwest 175 201 6,000  Level Washington Center
Mon 05:10:02 PM 36.6950 -78.8119 232° Southwest 175 201 6,000  Level Washington Center
Mon 05:11:00 PM 36.6644 -78.8572 230° Southwest 175 201 6,000  Level Washington Center
Mon 05:12:01 PM 36.6339 -78.9025 230° Southwest 182 209 6,000  Level Washington Center
Mon 05:13:02 PM 36.6036 -78.9478 230° Southwest 182 209 6,000  Level Washington Center
Mon 05:14:00 PM 36.5708 -78.9928 228° Southwest 177 204 6,000  Level Washington Center
Mon 05:15:01 PM 36.5425 -79.0408 234° Southwest 177 204 6,000  Level Washington Center
Mon 05:16:02 PM 36.5078 -79.0858 226° Southwest 177 204 6,000  Level Washington Center
Mon 05:17:03 PM 36.4772 -79.1361 233° Southwest 177 204 6,000  Level Washington Center
Mon 05:18:00 PM 36.4444 -79.1836 229° Southwest 177 204 6,000  Level Washington Center
Mon 05:19:01 PM 36.4117 -79.2286 228° Southwest 177 204 6,000 Level Washington Center
Mon 05:39:16 PM 35.7636 -80.1692 230° Southwest 177 204 6,100 Climbing Atlanta Center
Mon 05:39:53 PM 35.7458 -80.1983 233° Southwest 177 204 6,100 -291 Level Atlanta Center
Mon 05:40:59 PM 35.7078 -80.2511 228° Southwest 185 213 5,600 -472 Descending Atlanta Center
Mon 05:42:00 PM 35.6717 -80.3014 229° Southwest 196 226 5,100 -492 Descending Atlanta Center
Mon 05:43:01 PM 35.6378 -80.3542 232° Southwest 194 223 4,600 -516 Descending Atlanta Center
Mon 05:44:08 PM 35.5978 -80.4094 228° Southwest 195 224 4,000 -422 Descending Atlanta Center
Mon 05:45:09 PM 35.5639 -80.4594 230° Southwest 189 217 3,700 -397 Descending Atlanta Center
Mon 05:46:09 PM 35.5339 -80.5067 232° Southwest 177 204 3,200 -365 Descending Atlanta Center
Mon 05:47:04 PM 35.5036 -80.5439 225° Southwest 165 190 3,000 -207 Descending Atlanta Center
Mon 05:48:05 PM 35.4775 -80.5806 229° Southwest 147 169 2,800 -344 Descending Atlanta Center
Mon 05:49:06 PM 35.4494 -80.6225 231° Southwest 140 161 2,300 -496 Descending Atlanta Center
Mon 05:50:06 PM 35.4233 -80.6594 229° Southwest 148 170 1,800 -283 Descending Atlanta Center
Mon 05:51:13 PM 35.3972 -80.6936 227° Southwest 127 146 1,700 -197 Descending Atlanta Center
Mon 05:52:08 PM 35.3706 -80.7047 199° South 105 121 1,400 -362 Descending Atlanta Center
Mon 05:53:09 PM 35.3708 -80.7175 272° West 96 110 1,000 -207 Descending Atlanta Center
Mon 05:54:04 PM 35.3769 -80.7172 North 96 110 1,000  Level Atlanta Center

Login

Don't have an account? Register now (free) for customized features, flight alerts, and more!